Antonello — IKVS — position and weather

sailwx.info

Track history (hours):
 
Tides and Currents Weather Stations Pressure Air Temp Water Temp Dewpoint Dewpoint Depression Visibility Wind Speed Wind Dir Waves Ship Positions

Antonello

Last reported at 2015-Jul-02 22:06 UTC. Time now 2015-Jul-02 23:06 UTC.
Position N 38°27' E 015°54'.

Length 70 m; draft 4.2 m.

Type: Ship. MMSI: 247422000.

Date/timePositionNaut miles runAvg speedWind from/ knotsBaromVisibWave heightAir tempDewpointWater temp
2015-Jul-02 22:06N 38°27' E 015°54'2 4.4
2015-Jul-02 21:33N 38°28' E 015°51'10 9.6
2015-Jul-02 20:29N 38°34' E 015°41'9 9.5
2015-Jul-02 19:33N 38°39' E 015°32'16 0.7
2015-Jul-01 20:30N 38°49' E 015°15'0 0.0
2015-Jul-01 18:08N 38°49' E 015°15'5 8.3
2015-Jul-01 17:32N 38°45' E 015°20'9 8.9
2015-Jul-01 16:33N 38°40' E 015°29'9 9.3
2015-Jul-01 15:33N 38°35' E 015°39'9 9.5
2015-Jul-01 14:33N 38°29' E 015°49'5 0.7
2015-Jul-01 07:28N 38°27' E 015°54'4 4.4
2015-Jul-01 06:33N 38°27' E 015°49'10 9.8
2015-Jul-01 05:32N 38°28' E 015°36'1010.0
2015-Jul-01 04:33N 38°29' E 015°24'10 9.8
2015-Jul-01 03:33N 38°31' E 015°12'10 9.8
2015-Jul-01 02:32N 38°32' E 014°59'13 0.6
2015-Jun-30 06:33N 38°42' E 014°48'55 9.0
2015-Jun-30 00:28N 39°35' E 014°34'9 9.4
2015-Jun-29 23:34N 39°43' E 014°30'9 9.3
2015-Jun-29 22:34N 39°52' E 014°27'10 9.4
2015-Jun-29 21:32N 40°02' E 014°25'10 9.7
2015-Jun-29 20:28N 40°12' E 014°22'9 9.4
2015-Jun-29 19:28N 40°21' E 014°20'9 9.4
2015-Jun-29 18:34N 40°30' E 014°18'10 9.6
2015-Jun-29 17:32N 40°39' E 014°17'9 9.2
2015-Jun-29 16:33N 40°49' E 014°17'2 0.1
2015-Jun-28 10:33N 40°47' E 014°18'10 9.8
2015-Jun-28 09:33N 40°37' E 014°18'10 9.8
2015-Jun-28 08:33N 40°28' E 014°21'10 9.8
2015-Jun-28 07:33N 40°18' E 014°25'42 8.4
2015-Jun-28 02:32N 39°38' E 014°41'8 8.4
2015-Jun-28 01:33N 39°30' E 014°44'42 8.3
2015-Jun-27 20:28N 38°50' E 015°01'7 7.6
2015-Jun-27 19:32N 38°43' E 015°03'5 0.3
2015-Jun-27 04:23N 38°38' E 015°05'0 0.0
2015-Jun-26 22:25N 38°38' E 015°05'1 0.4
2015-Jun-26 20:33N 38°39' E 015°06'9 9.1
2015-Jun-26 19:33N 38°47' E 015°11'3 0.9
2015-Jun-26 16:30N 38°45' E 015°14'8 8.2
2015-Jun-26 15:33N 38°41' E 015°22'9 9.0
2015-Jun-26 14:33N 38°37' E 015°32'10 9.5
2015-Jun-26 13:33N 38°32' E 015°43'9 9.4
2015-Jun-26 12:33N 38°27' E 015°53'1 0.2
2015-Jun-26 05:33N 38°27' E 015°54'3 2.8
2015-Jun-26 04:33N 38°28' E 015°51'10 9.8
2015-Jun-26 03:33N 38°28' E 015°38'1010.0
2015-Jun-26 02:33N 38°29' E 015°26'10 9.5
2015-Jun-26 01:32N 38°30' E 015°13'13 0.6
2015-Jun-25 05:23N 38°32' E 014°57'7 8.8
2015-Jun-25 04:33N 38°29' E 015°05'9 8.9
2015-Jun-25 03:33N 38°26' E 015°16'9 8.8
2015-Jun-25 02:33N 38°23' E 015°26'8 8.5
2015-Jun-25 01:33N 38°19' E 015°36'5 4.9
2015-Jun-25 00:34N 38°15' E 015°39'8 7.5
2015-Jun-24 23:33N 38°08' E 015°36'9 8.7
2015-Jun-24 22:33N 37°59' E 015°34'9 9.1
2015-Jun-24 21:34N 37°50' E 015°30'9 8.8
2015-Jun-24 20:29N 37°41' E 015°27'9 9.2
2015-Jun-24 19:33N 37°33' E 015°24'9 9.4
2015-Jun-24 18:33N 37°24' E 015°20'  
Track history (hours):
 
Tides and Currents Weather Stations Pressure Air Temp Water Temp Dewpoint Dewpoint Depression Visibility Wind Speed Wind Dir Waves Ship Positions

Antonello

Last reported at 2015-Jul-02 22:06 UTC. Time now 2015-Jul-02 23:06 UTC.
Position N 38°27' E 015°54'.

Length 70 m; draft 4.2 m.

Type: Ship. MMSI: 247422000.

Date/timePositionNaut miles runAvg speedWind from/ knotsBaromVisibWave heightAir tempDewpointWater temp
2015-Jul-02 22:06N 38°27' E 015°54'2 4.4
2015-Jul-02 21:33N 38°28' E 015°51'10 9.6
2015-Jul-02 20:29N 38°34' E 015°41'9 9.5
2015-Jul-02 19:33N 38°39' E 015°32'16 0.7
2015-Jul-01 20:30N 38°49' E 015°15'0 0.0
2015-Jul-01 18:08N 38°49' E 015°15'5 8.3
2015-Jul-01 17:32N 38°45' E 015°20'9 8.9
2015-Jul-01 16:33N 38°40' E 015°29'9 9.3
2015-Jul-01 15:33N 38°35' E 015°39'9 9.5
2015-Jul-01 14:33N 38°29' E 015°49'5 0.7
2015-Jul-01 07:28N 38°27' E 015°54'4 4.4
2015-Jul-01 06:33N 38°27' E 015°49'10 9.8
2015-Jul-01 05:32N 38°28' E 015°36'1010.0
2015-Jul-01 04:33N 38°29' E 015°24'10 9.8
2015-Jul-01 03:33N 38°31' E 015°12'10 9.8
2015-Jul-01 02:32N 38°32' E 014°59'13 0.6
2015-Jun-30 06:33N 38°42' E 014°48'55 9.0
2015-Jun-30 00:28N 39°35' E 014°34'9 9.4
2015-Jun-29 23:34N 39°43' E 014°30'9 9.3
2015-Jun-29 22:34N 39°52' E 014°27'10 9.4
2015-Jun-29 21:32N 40°02' E 014°25'10 9.7
2015-Jun-29 20:28N 40°12' E 014°22'9 9.4
2015-Jun-29 19:28N 40°21' E 014°20'9 9.4
2015-Jun-29 18:34N 40°30' E 014°18'10 9.6
2015-Jun-29 17:32N 40°39' E 014°17'9 9.2
2015-Jun-29 16:33N 40°49' E 014°17'2 0.1
2015-Jun-28 10:33N 40°47' E 014°18'10 9.8
2015-Jun-28 09:33N 40°37' E 014°18'10 9.8
2015-Jun-28 08:33N 40°28' E 014°21'10 9.8
2015-Jun-28 07:33N 40°18' E 014°25'42 8.4
2015-Jun-28 02:32N 39°38' E 014°41'8 8.4
2015-Jun-28 01:33N 39°30' E 014°44'42 8.3
2015-Jun-27 20:28N 38°50' E 015°01'7 7.6
2015-Jun-27 19:32N 38°43' E 015°03'5 0.3
2015-Jun-27 04:23N 38°38' E 015°05'0 0.0
2015-Jun-26 22:25N 38°38' E 015°05'1 0.4
2015-Jun-26 20:33N 38°39' E 015°06'9 9.1
2015-Jun-26 19:33N 38°47' E 015°11'3 0.9
2015-Jun-26 16:30N 38°45' E 015°14'8 8.2
2015-Jun-26 15:33N 38°41' E 015°22'9 9.0
2015-Jun-26 14:33N 38°37' E 015°32'10 9.5
2015-Jun-26 13:33N 38°32' E 015°43'9 9.4
2015-Jun-26 12:33N 38°27' E 015°53'1 0.2
2015-Jun-26 05:33N 38°27' E 015°54'3 2.8
2015-Jun-26 04:33N 38°28' E 015°51'10 9.8
2015-Jun-26 03:33N 38°28' E 015°38'1010.0
2015-Jun-26 02:33N 38°29' E 015°26'10 9.5
2015-Jun-26 01:32N 38°30' E 015°13'13 0.6
2015-Jun-25 05:23N 38°32' E 014°57'7 8.8
2015-Jun-25 04:33N 38°29' E 015°05'9 8.9
2015-Jun-25 03:33N 38°26' E 015°16'9 8.8
2015-Jun-25 02:33N 38°23' E 015°26'8 8.5
2015-Jun-25 01:33N 38°19' E 015°36'5 4.9
2015-Jun-25 00:34N 38°15' E 015°39'8 7.5
2015-Jun-24 23:33N 38°08' E 015°36'9 8.7
2015-Jun-24 22:33N 37°59' E 015°34'9 9.1
2015-Jun-24 21:34N 37°50' E 015°30'9 8.8
2015-Jun-24 20:29N 37°41' E 015°27'9 9.2
2015-Jun-24 19:33N 37°33' E 015°24'9 9.4
2015-Jun-24 18:33N 37°24' E 015°20'  

Dump ship's entire track history